sensor_id;sensor_type;location;lat;lon;timestamp;P1;durP1;ratioP1;P2;durP2;ratioP2
46767;SDS011;69007;48.978;18.066;2023-04-25T00:00:27;5.22;;;2.42;;
46767;SDS011;69007;48.978;18.066;2023-04-25T00:02:53;4.57;;;3.22;;
46767;SDS011;69007;48.978;18.066;2023-04-25T00:05:20;4.75;;;3.30;;
46767;SDS011;69007;48.978;18.066;2023-04-25T00:07:48;3.33;;;3.03;;
46767;SDS011;69007;48.978;18.066;2023-04-25T00:10:13;6.60;;;3.13;;
46767;SDS011;69007;48.978;18.066;2023-04-25T00:12:39;3.30;;;3.00;;
46767;SDS011;69007;48.978;18.066;2023-04-25T00:15:06;3.40;;;2.97;;
46767;SDS011;69007;48.978;18.066;2023-04-25T00:17:32;3.70;;;3.22;;
46767;SDS011;69007;48.978;18.066;2023-04-25T00:19:57;3.15;;;2.75;;
46767;SDS011;69007;48.978;18.066;2023-04-25T00:22:23;5.25;;;3.88;;
46767;SDS011;69007;48.978;18.066;2023-04-25T00:24:48;3.97;;;3.30;;
46767;SDS011;69007;48.978;18.066;2023-04-25T00:27:14;4.60;;;3.92;;
46767;SDS011;69007;48.978;18.066;2023-04-25T00:29:39;5.43;;;3.50;;
46767;SDS011;69007;48.978;18.066;2023-04-25T00:32:05;5.22;;;3.28;;
46767;SDS011;69007;48.978;18.066;2023-04-25T00:34:30;5.45;;;3.53;;
46767;SDS011;69007;48.978;18.066;2023-04-25T00:36:55;5.80;;;3.60;;
46767;SDS011;69007;48.978;18.066;2023-04-25T00:39:21;4.25;;;3.60;;
46767;SDS011;69007;48.978;18.066;2023-04-25T00:41:47;6.47;;;3.88;;
46767;SDS011;69007;48.978;18.066;2023-04-25T00:44:13;5.53;;;3.92;;
46767;SDS011;69007;48.978;18.066;2023-04-25T00:46:42;10.35;;;4.00;;
46767;SDS011;69007;48.978;18.066;2023-04-25T00:49:07;5.97;;;3.50;;
46767;SDS011;69007;48.978;18.066;2023-04-25T00:51:33;4.35;;;3.95;;
46767;SDS011;69007;48.978;18.066;2023-04-25T00:53:59;4.28;;;3.85;;
46767;SDS011;69007;48.978;18.066;2023-04-25T00:56:25;7.03;;;3.55;;
46767;SDS011;69007;48.978;18.066;2023-04-25T00:58:52;7.50;;;3.85;;
46767;SDS011;69007;48.978;18.066;2023-04-25T01:01:20;10.10;;;3.67;;
46767;SDS011;69007;48.978;18.066;2023-04-25T01:03:46;8.23;;;4.68;;
46767;SDS011;69007;48.978;18.066;2023-04-25T01:06:11;4.85;;;4.35;;
46767;SDS011;69007;48.978;18.066;2023-04-25T01:08:37;4.78;;;4.32;;
46767;SDS011;69007;48.978;18.066;2023-04-25T01:11:04;5.00;;;4.53;;
46767;SDS011;69007;48.978;18.066;2023-04-25T01:13:30;6.65;;;4.40;;
46767;SDS011;69007;48.978;18.066;2023-04-25T01:15:57;5.28;;;4.78;;
46767;SDS011;69007;48.978;18.066;2023-04-25T01:18:22;4.47;;;3.95;;
46767;SDS011;69007;48.978;18.066;2023-04-25T01:20:49;5.05;;;4.25;;
46767;SDS011;69007;48.978;18.066;2023-04-25T01:23:16;11.75;;;5.80;;
46767;SDS011;69007;48.978;18.066;2023-04-25T01:25:43;4.93;;;4.50;;
46767;SDS011;69007;48.978;18.066;2023-04-25T01:28:09;7.30;;;4.55;;
46767;SDS011;69007;48.978;18.066;2023-04-25T01:30:34;5.25;;;4.55;;
46767;SDS011;69007;48.978;18.066;2023-04-25T01:33:00;5.30;;;4.80;;
46767;SDS011;69007;48.978;18.066;2023-04-25T01:35:26;4.68;;;4.25;;
46767;SDS011;69007;48.978;18.066;2023-04-25T01:37:53;5.25;;;4.75;;
46767;SDS011;69007;48.978;18.066;2023-04-25T01:40:18;5.72;;;4.75;;
46767;SDS011;69007;48.978;18.066;2023-04-25T01:42:45;6.75;;;4.30;;
46767;SDS011;69007;48.978;18.066;2023-04-25T01:45:11;6.28;;;4.90;;
46767;SDS011;69007;48.978;18.066;2023-04-25T01:47:37;5.95;;;4.30;;
46767;SDS011;69007;48.978;18.066;2023-04-25T01:50:05;4.60;;;4.20;;
46767;SDS011;69007;48.978;18.066;2023-04-25T01:52:32;6.75;;;4.40;;
46767;SDS011;69007;48.978;18.066;2023-04-25T01:54:58;4.55;;;4.10;;
46767;SDS011;69007;48.978;18.066;2023-04-25T01:57:25;7.85;;;4.70;;
46767;SDS011;69007;48.978;18.066;2023-04-25T01:59:51;4.53;;;4.13;;
46767;SDS011;69007;48.978;18.066;2023-04-25T02:02:16;4.72;;;4.20;;
46767;SDS011;69007;48.978;18.066;2023-04-25T02:04:42;6.65;;;4.03;;
46767;SDS011;69007;48.978;18.066;2023-04-25T02:07:07;4.63;;;4.22;;
46767;SDS011;69007;48.978;18.066;2023-04-25T02:09:32;4.82;;;3.95;;
46767;SDS011;69007;48.978;18.066;2023-04-25T02:11:58;5.35;;;4.22;;
46767;SDS011;69007;48.978;18.066;2023-04-25T02:14:23;4.82;;;4.32;;
46767;SDS011;69007;48.978;18.066;2023-04-25T02:16:48;10.02;;;5.20;;
46767;SDS011;69007;48.978;18.066;2023-04-25T02:19:14;5.05;;;4.57;;
46767;SDS011;69007;48.978;18.066;2023-04-25T02:21:39;5.78;;;5.15;;
46767;SDS011;69007;48.978;18.066;2023-04-25T02:24:05;10.02;;;5.65;;
46767;SDS011;69007;48.978;18.066;2023-04-25T02:26:30;6.22;;;5.30;;
46767;SDS011;69007;48.978;18.066;2023-04-25T02:28:56;6.20;;;5.60;;
46767;SDS011;69007;48.978;18.066;2023-04-25T02:31:22;6.18;;;5.57;;
46767;SDS011;69007;48.978;18.066;2023-04-25T02:33:47;5.70;;;5.20;;
46767;SDS011;69007;48.978;18.066;2023-04-25T02:36:13;6.60;;;6.00;;
46767;SDS011;69007;48.978;18.066;2023-04-25T02:38:38;7.55;;;5.90;;
46767;SDS011;69007;48.978;18.066;2023-04-25T02:41:04;7.03;;;5.97;;
46767;SDS011;69007;48.978;18.066;2023-04-25T02:43:30;6.93;;;5.97;;
46767;SDS011;69007;48.978;18.066;2023-04-25T02:45:55;6.93;;;5.88;;
46767;SDS011;69007;48.978;18.066;2023-04-25T02:48:21;6.25;;;5.65;;
46767;SDS011;69007;48.978;18.066;2023-04-25T02:50:46;8.52;;;5.75;;
46767;SDS011;69007;48.978;18.066;2023-04-25T02:53:11;8.00;;;5.15;;
46767;SDS011;69007;48.978;18.066;2023-04-25T02:55:37;6.72;;;5.53;;
46767;SDS011;69007;48.978;18.066;2023-04-25T02:58:02;5.93;;;5.30;;
46767;SDS011;69007;48.978;18.066;2023-04-25T03:00:27;5.97;;;4.68;;
46767;SDS011;69007;48.978;18.066;2023-04-25T03:02:53;5.97;;;5.38;;
46767;SDS011;69007;48.978;18.066;2023-04-25T03:05:20;5.97;;;5.38;;
46767;SDS011;69007;48.978;18.066;2023-04-25T03:07:45;7.68;;;5.20;;
46767;SDS011;69007;48.978;18.066;2023-04-25T03:10:11;5.50;;;5.00;;
46767;SDS011;69007;48.978;18.066;2023-04-25T03:12:36;5.85;;;5.25;;
46767;SDS011;69007;48.978;18.066;2023-04-25T03:15:02;7.78;;;5.50;;
46767;SDS011;69007;48.978;18.066;2023-04-25T03:17:28;5.95;;;5.40;;
46767;SDS011;69007;48.978;18.066;2023-04-25T03:19:53;7.75;;;5.60;;
46767;SDS011;69007;48.978;18.066;2023-04-25T03:22:19;6.18;;;5.50;;
46767;SDS011;69007;48.978;18.066;2023-04-25T03:24:44;6.40;;;5.70;;
46767;SDS011;69007;48.978;18.066;2023-04-25T03:27:10;6.90;;;5.43;;
46767;SDS011;69007;48.978;18.066;2023-04-25T03:29:35;5.50;;;5.00;;
46767;SDS011;69007;48.978;18.066;2023-04-25T03:32:00;10.40;;;5.50;;
46767;SDS011;69007;48.978;18.066;2023-04-25T03:34:26;6.75;;;6.15;;
46767;SDS011;69007;48.978;18.066;2023-04-25T03:36:51;6.13;;;5.50;;
46767;SDS011;69007;48.978;18.066;2023-04-25T03:39:16;5.53;;;5.03;;
46767;SDS011;69007;48.978;18.066;2023-04-25T03:41:42;6.38;;;5.70;;
46767;SDS011;69007;48.978;18.066;2023-04-25T03:44:07;6.63;;;5.40;;
46767;SDS011;69007;48.978;18.066;2023-04-25T03:46:32;6.18;;;5.00;;
46767;SDS011;69007;48.978;18.066;2023-04-25T03:48:58;6.18;;;5.57;;
46767;SDS011;69007;48.978;18.066;2023-04-25T03:51:24;12.27;;;5.38;;
46767;SDS011;69007;48.978;18.066;2023-04-25T03:53:50;5.95;;;5.10;;
46767;SDS011;69007;48.978;18.066;2023-04-25T03:56:16;5.88;;;5.38;;
46767;SDS011;69007;48.978;18.066;2023-04-25T03:58:41;6.75;;;5.70;;
46767;SDS011;69007;48.978;18.066;2023-04-25T04:01:06;5.75;;;5.15;;
46767;SDS011;69007;48.978;18.066;2023-04-25T04:03:35;8.25;;;5.22;;
46767;SDS011;69007;48.978;18.066;2023-04-25T04:06:01;5.80;;;5.30;;
46767;SDS011;69007;48.978;18.066;2023-04-25T04:08:29;6.95;;;6.25;;
46767;SDS011;69007;48.978;18.066;2023-04-25T04:10:54;8.45;;;5.38;;
46767;SDS011;69007;48.978;18.066;2023-04-25T04:13:20;8.25;;;5.78;;
46767;SDS011;69007;48.978;18.066;2023-04-25T04:15:45;6.07;;;5.40;;
46767;SDS011;69007;48.978;18.066;2023-04-25T04:18:10;6.68;;;6.00;;
46767;SDS011;69007;48.978;18.066;2023-04-25T04:20:36;5.80;;;5.13;;
46767;SDS011;69007;48.978;18.066;2023-04-25T04:23:01;7.25;;;5.45;;
46767;SDS011;69007;48.978;18.066;2023-04-25T04:25:26;5.95;;;5.40;;
46767;SDS011;69007;48.978;18.066;2023-04-25T04:27:52;6.68;;;4.60;;
46767;SDS011;69007;48.978;18.066;2023-04-25T04:30:20;7.13;;;5.63;;
46767;SDS011;69007;48.978;18.066;2023-04-25T04:32:48;5.03;;;4.57;;
46767;SDS011;69007;48.978;18.066;2023-04-25T04:35:14;6.15;;;5.55;;
46767;SDS011;69007;48.978;18.066;2023-04-25T04:37:39;6.40;;;5.07;;
46767;SDS011;69007;48.978;18.066;2023-04-25T04:40:05;7.03;;;5.38;;
46767;SDS011;69007;48.978;18.066;2023-04-25T04:42:31;6.10;;;5.50;;
46767;SDS011;69007;48.978;18.066;2023-04-25T04:44:57;6.00;;;5.40;;
46767;SDS011;69007;48.978;18.066;2023-04-25T04:47:23;8.20;;;5.18;;
46767;SDS011;69007;48.978;18.066;2023-04-25T04:49:49;8.32;;;5.78;;
46767;SDS011;69007;48.978;18.066;2023-04-25T04:52:14;6.28;;;5.65;;
46767;SDS011;69007;48.978;18.066;2023-04-25T04:54:40;6.35;;;5.75;;
46767;SDS011;69007;48.978;18.066;2023-04-25T04:57:05;6.35;;;5.55;;
46767;SDS011;69007;48.978;18.066;2023-04-25T04:59:30;8.82;;;6.80;;
46767;SDS011;69007;48.978;18.066;2023-04-25T05:01:56;6.35;;;5.72;;
46767;SDS011;69007;48.978;18.066;2023-04-25T05:04:21;7.13;;;6.38;;
46767;SDS011;69007;48.978;18.066;2023-04-25T05:06:46;9.13;;;5.82;;
46767;SDS011;69007;48.978;18.066;2023-04-25T05:09:12;8.48;;;6.20;;
46767;SDS011;69007;48.978;18.066;2023-04-25T05:11:37;7.32;;;5.70;;
46767;SDS011;69007;48.978;18.066;2023-04-25T05:14:03;5.30;;;4.80;;
46767;SDS011;69007;48.978;18.066;2023-04-25T05:16:28;5.00;;;4.30;;
46767;SDS011;69007;48.978;18.066;2023-04-25T05:18:53;3.70;;;3.40;;
46767;SDS011;69007;48.978;18.066;2023-04-25T05:21:19;4.68;;;3.85;;
46767;SDS011;69007;48.978;18.066;2023-04-25T05:23:44;4.68;;;4.25;;
46767;SDS011;69007;48.978;18.066;2023-04-25T05:26:09;3.85;;;3.42;;
46767;SDS011;69007;48.978;18.066;2023-04-25T05:28:39;5.00;;;2.78;;
46767;SDS011;69007;48.978;18.066;2023-04-25T05:31:06;2.65;;;2.45;;
46767;SDS011;69007;48.978;18.066;2023-04-25T05:33:32;5.03;;;2.65;;
46767;SDS011;69007;48.978;18.066;2023-04-25T05:35:57;3.15;;;2.85;;
46767;SDS011;69007;48.978;18.066;2023-04-25T05:38:22;2.50;;;2.22;;
46767;SDS011;69007;48.978;18.066;2023-04-25T05:40:48;2.65;;;2.17;;
46767;SDS011;69007;48.978;18.066;2023-04-25T05:43:13;2.88;;;2.10;;
46767;SDS011;69007;48.978;18.066;2023-04-25T05:45:38;2.50;;;2.20;;
46767;SDS011;69007;48.978;18.066;2023-04-25T05:48:04;3.35;;;2.25;;
46767;SDS011;69007;48.978;18.066;2023-04-25T05:50:29;5.55;;;1.92;;
46767;SDS011;69007;48.978;18.066;2023-04-25T05:52:55;1.83;;;1.73;;
46767;SDS011;69007;48.978;18.066;2023-04-25T05:55:20;1.85;;;1.75;;
46767;SDS011;69007;48.978;18.066;2023-04-25T05:57:45;1.85;;;1.65;;
46767;SDS011;69007;48.978;18.066;2023-04-25T06:00:14;2.00;;;1.88;;
46767;SDS011;69007;48.978;18.066;2023-04-25T06:02:40;2.13;;;1.83;;
46767;SDS011;69007;48.978;18.066;2023-04-25T06:05:06;1.80;;;1.70;;
46767;SDS011;69007;48.978;18.066;2023-04-25T06:07:32;2.22;;;1.90;;
46767;SDS011;69007;48.978;18.066;2023-04-25T06:09:58;2.33;;;1.73;;
46767;SDS011;69007;48.978;18.066;2023-04-25T06:12:24;2.05;;;1.67;;
46767;SDS011;69007;48.978;18.066;2023-04-25T06:14:49;2.15;;;1.77;;
46767;SDS011;69007;48.978;18.066;2023-04-25T06:17:15;2.10;;;1.90;;
46767;SDS011;69007;48.978;18.066;2023-04-25T06:19:40;1.55;;;1.45;;
46767;SDS011;69007;48.978;18.066;2023-04-25T06:22:07;1.75;;;1.65;;
46767;SDS011;69007;48.978;18.066;2023-04-25T06:24:33;1.70;;;1.60;;
46767;SDS011;69007;48.978;18.066;2023-04-25T06:26:59;2.90;;;2.05;;
46767;SDS011;69007;48.978;18.066;2023-04-25T06:29:25;2.00;;;1.80;;
46767;SDS011;69007;48.978;18.066;2023-04-25T06:31:51;7.47;;;2.00;;
46767;SDS011;69007;48.978;18.066;2023-04-25T06:34:16;1.83;;;1.73;;
46767;SDS011;69007;48.978;18.066;2023-04-25T06:36:42;3.60;;;1.77;;
46767;SDS011;69007;48.978;18.066;2023-04-25T06:39:09;1.80;;;1.55;;
46767;SDS011;69007;48.978;18.066;2023-04-25T06:41:34;3.50;;;1.80;;
46767;SDS011;69007;48.978;18.066;2023-04-25T06:44:00;1.95;;;1.75;;
46767;SDS011;69007;48.978;18.066;2023-04-25T06:46:26;1.90;;;1.80;;
46767;SDS011;69007;48.978;18.066;2023-04-25T06:48:51;2.65;;;1.85;;
46767;SDS011;69007;48.978;18.066;2023-04-25T06:51:16;3.13;;;1.77;;
46767;SDS011;69007;48.978;18.066;2023-04-25T06:53:42;2.60;;;1.70;;
46767;SDS011;69007;48.978;18.066;2023-04-25T06:56:07;2.53;;;2.33;;
46767;SDS011;69007;48.978;18.066;2023-04-25T06:58:33;2.05;;;1.83;;
46767;SDS011;69007;48.978;18.066;2023-04-25T07:00:58;2.55;;;1.92;;
46767;SDS011;69007;48.978;18.066;2023-04-25T07:03:23;1.65;;;1.50;;
46767;SDS011;69007;48.978;18.066;2023-04-25T07:05:49;1.92;;;1.60;;
46767;SDS011;69007;48.978;18.066;2023-04-25T07:08:15;2.85;;;2.10;;
46767;SDS011;69007;48.978;18.066;2023-04-25T07:10:41;2.33;;;2.10;;
46767;SDS011;69007;48.978;18.066;2023-04-25T07:13:06;4.30;;;2.05;;
46767;SDS011;69007;48.978;18.066;2023-04-25T07:15:31;1.65;;;1.52;;
46767;SDS011;69007;48.978;18.066;2023-04-25T07:17:57;2.22;;;1.85;;
46767;SDS011;69007;48.978;18.066;2023-04-25T07:20:22;2.00;;;1.60;;
46767;SDS011;69007;48.978;18.066;2023-04-25T07:22:47;2.13;;;1.70;;
46767;SDS011;69007;48.978;18.066;2023-04-25T07:25:13;1.63;;;1.50;;
46767;SDS011;69007;48.978;18.066;2023-04-25T07:27:38;1.63;;;1.52;;
46767;SDS011;69007;48.978;18.066;2023-04-25T07:30:04;1.45;;;1.35;;
46767;SDS011;69007;48.978;18.066;2023-04-25T07:32:30;1.85;;;1.65;;
46767;SDS011;69007;48.978;18.066;2023-04-25T07:34:55;1.50;;;1.40;;
46767;SDS011;69007;48.978;18.066;2023-04-25T07:37:21;2.22;;;1.45;;
46767;SDS011;69007;48.978;18.066;2023-04-25T07:39:46;1.80;;;1.50;;
46767;SDS011;69007;48.978;18.066;2023-04-25T07:42:12;1.60;;;1.50;;
46767;SDS011;69007;48.978;18.066;2023-04-25T07:44:38;3.80;;;1.40;;
46767;SDS011;69007;48.978;18.066;2023-04-25T07:47:05;1.58;;;1.23;;
46767;SDS011;69007;48.978;18.066;2023-04-25T07:49:34;1.65;;;1.55;;
46767;SDS011;69007;48.978;18.066;2023-04-25T07:52:00;1.80;;;1.70;;
46767;SDS011;69007;48.978;18.066;2023-04-25T07:54:26;7.57;;;2.42;;
46767;SDS011;69007;48.978;18.066;2023-04-25T07:56:51;1.40;;;1.30;;
46767;SDS011;69007;48.978;18.066;2023-04-25T07:59:16;1.70;;;1.40;;
46767;SDS011;69007;48.978;18.066;2023-04-25T08:01:42;1.50;;;1.40;;
46767;SDS011;69007;48.978;18.066;2023-04-25T08:04:07;1.70;;;1.42;;
46767;SDS011;69007;48.978;18.066;2023-04-25T08:06:32;1.50;;;1.40;;
46767;SDS011;69007;48.978;18.066;2023-04-25T08:08:58;5.97;;;1.67;;
46767;SDS011;69007;48.978;18.066;2023-04-25T08:11:23;3.10;;;1.55;;
46767;SDS011;69007;48.978;18.066;2023-04-25T08:13:49;1.50;;;1.40;;
46767;SDS011;69007;48.978;18.066;2023-04-25T08:16:14;1.67;;;1.33;;
46767;SDS011;69007;48.978;18.066;2023-04-25T08:18:39;1.30;;;1.20;;
46767;SDS011;69007;48.978;18.066;2023-04-25T08:21:05;1.60;;;1.50;;
46767;SDS011;69007;48.978;18.066;2023-04-25T08:23:31;1.80;;;1.70;;
46767;SDS011;69007;48.978;18.066;2023-04-25T08:25:57;1.50;;;1.40;;
46767;SDS011;69007;48.978;18.066;2023-04-25T08:28:22;3.28;;;1.60;;
46767;SDS011;69007;48.978;18.066;2023-04-25T08:30:47;2.08;;;1.50;;
46767;SDS011;69007;48.978;18.066;2023-04-25T08:33:13;1.27;;;1.23;;
46767;SDS011;69007;48.978;18.066;2023-04-25T08:35:38;1.30;;;1.20;;
46767;SDS011;69007;48.978;18.066;2023-04-25T08:38:03;3.50;;;1.50;;
46767;SDS011;69007;48.978;18.066;2023-04-25T08:40:29;3.05;;;1.58;;
46767;SDS011;69007;48.978;18.066;2023-04-25T08:43:00;1.58;;;1.48;;
46767;SDS011;69007;48.978;18.066;2023-04-25T08:45:28;1.77;;;1.67;;
46767;SDS011;69007;48.978;18.066;2023-04-25T08:47:56;1.83;;;1.73;;
46767;SDS011;69007;48.978;18.066;2023-04-25T08:50:22;2.03;;;1.85;;
46767;SDS011;69007;48.978;18.066;2023-04-25T08:52:48;2.70;;;1.75;;
46767;SDS011;69007;48.978;18.066;2023-04-25T08:55:17;2.08;;;1.55;;
46767;SDS011;69007;48.978;18.066;2023-04-25T08:57:43;4.28;;;1.77;;
46767;SDS011;69007;48.978;18.066;2023-04-25T09:00:10;1.77;;;1.67;;
46767;SDS011;69007;48.978;18.066;2023-04-25T09:02:37;1.98;;;1.80;;
46767;SDS011;69007;48.978;18.066;2023-04-25T09:05:04;2.83;;;1.90;;
46767;SDS011;69007;48.978;18.066;2023-04-25T09:07:31;2.92;;;1.98;;
46767;SDS011;69007;48.978;18.066;2023-04-25T09:09:57;3.65;;;2.20;;
46767;SDS011;69007;48.978;18.066;2023-04-25T09:12:26;2.15;;;1.95;;
46767;SDS011;69007;48.978;18.066;2023-04-25T09:15:04;2.75;;;2.10;;
46767;SDS011;69007;48.978;18.066;2023-04-25T09:17:30;2.63;;;2.22;;
46767;SDS011;69007;48.978;18.066;2023-04-25T09:20:04;5.05;;;2.13;;
46767;SDS011;69007;48.978;18.066;2023-04-25T09:22:35;2.85;;;2.17;;
46767;SDS011;69007;48.978;18.066;2023-04-25T09:25:02;3.45;;;2.05;;
46767;SDS011;69007;48.978;18.066;2023-04-25T09:27:29;2.70;;;2.20;;
46767;SDS011;69007;48.978;18.066;2023-04-25T09:29:58;2.75;;;2.35;;
46767;SDS011;69007;48.978;18.066;2023-04-25T09:32:27;3.65;;;2.22;;
46767;SDS011;69007;48.978;18.066;2023-04-25T09:34:53;2.00;;;1.88;;
46767;SDS011;69007;48.978;18.066;2023-04-25T09:37:23;2.45;;;2.25;;
46767;SDS011;69007;48.978;18.066;2023-04-25T09:39:52;2.63;;;2.35;;
46767;SDS011;69007;48.978;18.066;2023-04-25T09:42:22;3.05;;;2.17;;
46767;SDS011;69007;48.978;18.066;2023-04-25T09:44:49;9.98;;;2.53;;
46767;SDS011;69007;48.978;18.066;2023-04-25T09:47:16;3.83;;;2.38;;
46767;SDS011;69007;48.978;18.066;2023-04-25T09:49:42;3.55;;;2.22;;
46767;SDS011;69007;48.978;18.066;2023-04-25T09:52:09;7.18;;;3.05;;
46767;SDS011;69007;48.978;18.066;2023-04-25T09:54:39;2.58;;;2.38;;
46767;SDS011;69007;48.978;18.066;2023-04-25T09:57:39;2.35;;;2.13;;
46767;SDS011;69007;48.978;18.066;2023-04-25T09:59:58;6.22;;;3.45;;
46767;SDS011;69007;48.978;18.066;2023-04-25T10:02:26;4.13;;;2.92;;
46767;SDS011;69007;48.978;18.066;2023-04-25T10:04:53;2.50;;;2.20;;
46767;SDS011;69007;48.978;18.066;2023-04-25T10:07:23;3.38;;;2.40;;
46767;SDS011;69007;48.978;18.066;2023-04-25T10:10:02;8.82;;;3.28;;
46767;SDS011;69007;48.978;18.066;2023-04-25T10:12:29;4.75;;;3.83;;
46767;SDS011;69007;48.978;18.066;2023-04-25T10:14:58;3.17;;;2.90;;
46767;SDS011;69007;48.978;18.066;2023-04-25T10:17:24;3.83;;;3.50;;
46767;SDS011;69007;48.978;18.066;2023-04-25T10:19:52;5.32;;;3.45;;
46767;SDS011;69007;48.978;18.066;2023-04-25T10:22:35;3.60;;;3.20;;
46767;SDS011;69007;48.978;18.066;2023-04-25T10:25:03;5.60;;;3.30;;
46767;SDS011;69007;48.978;18.066;2023-04-25T10:27:29;6.20;;;3.47;;
46767;SDS011;69007;48.978;18.066;2023-04-25T10:32:30;5.03;;;3.60;;
46767;SDS011;69007;48.978;18.066;2023-04-25T10:34:57;5.13;;;4.10;;
46767;SDS011;69007;48.978;18.066;2023-04-25T10:37:22;7.13;;;3.90;;
46767;SDS011;69007;48.978;18.066;2023-04-25T10:39:49;4.47;;;4.07;;
46767;SDS011;69007;48.978;18.066;2023-04-25T10:42:14;7.25;;;3.83;;
46767;SDS011;69007;48.978;18.066;2023-04-25T10:44:40;4.72;;;4.10;;
46767;SDS011;69007;48.978;18.066;2023-04-25T10:47:06;6.82;;;4.43;;
46767;SDS011;69007;48.978;18.066;2023-04-25T10:52:12;5.68;;;4.28;;
46767;SDS011;69007;48.978;18.066;2023-04-25T10:54:53;4.47;;;4.00;;
46767;SDS011;69007;48.978;18.066;2023-04-25T10:59:58;4.18;;;2.95;;
46767;SDS011;69007;48.978;18.066;2023-04-25T11:02:45;2.70;;;2.50;;
46767;SDS011;69007;48.978;18.066;2023-04-25T11:05:20;8.43;;;2.90;;
46767;SDS011;69007;48.978;18.066;2023-04-25T11:10:19;2.92;;;2.58;;
46767;SDS011;69007;48.978;18.066;2023-04-25T11:12:45;5.05;;;3.75;;
46767;SDS011;69007;48.978;18.066;2023-04-25T11:15:11;4.00;;;3.60;;
46767;SDS011;69007;48.978;18.066;2023-04-25T11:17:37;3.63;;;3.33;;
46767;SDS011;69007;48.978;18.066;2023-04-25T11:20:04;2.78;;;2.58;;
46767;SDS011;69007;48.978;18.066;2023-04-25T11:22:36;3.63;;;2.80;;
46767;SDS011;69007;48.978;18.066;2023-04-25T11:25:06;2.67;;;2.47;;
46767;SDS011;69007;48.978;18.066;2023-04-25T11:27:32;4.03;;;3.13;;
46767;SDS011;69007;48.978;18.066;2023-04-25T11:29:58;2.63;;;2.40;;
46767;SDS011;69007;48.978;18.066;2023-04-25T11:32:23;5.10;;;3.60;;
46767;SDS011;69007;48.978;18.066;2023-04-25T11:34:48;5.55;;;3.13;;
46767;SDS011;69007;48.978;18.066;2023-04-25T11:37:14;4.70;;;2.58;;
46767;SDS011;69007;48.978;18.066;2023-04-25T11:39:43;2.47;;;2.28;;
46767;SDS011;69007;48.978;18.066;2023-04-25T11:42:11;3.85;;;2.13;;
46767;SDS011;69007;48.978;18.066;2023-04-25T11:44:37;4.10;;;2.22;;
46767;SDS011;69007;48.978;18.066;2023-04-25T11:47:04;4.45;;;2.47;;
46767;SDS011;69007;48.978;18.066;2023-04-25T11:49:30;3.35;;;2.80;;
46767;SDS011;69007;48.978;18.066;2023-04-25T11:51:57;2.55;;;2.35;;
46767;SDS011;69007;48.978;18.066;2023-04-25T11:54:22;4.80;;;2.60;;
46767;SDS011;69007;48.978;18.066;2023-04-25T11:56:47;3.20;;;2.38;;
46767;SDS011;69007;48.978;18.066;2023-04-25T11:59:13;2.97;;;2.28;;
46767;SDS011;69007;48.978;18.066;2023-04-25T12:01:40;5.10;;;2.40;;
46767;SDS011;69007;48.978;18.066;2023-04-25T12:06:38;8.20;;;4.10;;
46767;SDS011;69007;48.978;18.066;2023-04-25T12:09:07;3.70;;;3.40;;
46767;SDS011;69007;48.978;18.066;2023-04-25T12:11:40;5.25;;;3.78;;
46767;SDS011;69007;48.978;18.066;2023-04-25T12:14:08;4.30;;;3.35;;
46767;SDS011;69007;48.978;18.066;2023-04-25T12:16:40;4.13;;;3.42;;
46767;SDS011;69007;48.978;18.066;2023-04-25T12:21:35;5.20;;;3.63;;
46767;SDS011;69007;48.978;18.066;2023-04-25T12:29:15;7.28;;;3.83;;
46767;SDS011;69007;48.978;18.066;2023-04-25T12:31:45;5.97;;;3.97;;
46767;SDS011;69007;48.978;18.066;2023-04-25T12:34:11;8.27;;;4.18;;
46767;SDS011;69007;48.978;18.066;2023-04-25T12:36:37;7.75;;;4.18;;
46767;SDS011;69007;48.978;18.066;2023-04-25T12:39:02;5.90;;;3.90;;
46767;SDS011;69007;48.978;18.066;2023-04-25T12:41:29;6.22;;;4.13;;
46767;SDS011;69007;48.978;18.066;2023-04-25T12:43:55;4.50;;;4.10;;
46767;SDS011;69007;48.978;18.066;2023-04-25T12:46:20;6.25;;;4.38;;
46767;SDS011;69007;48.978;18.066;2023-04-25T12:48:46;4.97;;;3.85;;
46767;SDS011;69007;48.978;18.066;2023-04-25T12:51:11;4.40;;;3.90;;
46767;SDS011;69007;48.978;18.066;2023-04-25T12:53:36;5.93;;;4.30;;
46767;SDS011;69007;48.978;18.066;2023-04-25T12:56:03;4.20;;;3.83;;
46767;SDS011;69007;48.978;18.066;2023-04-25T12:58:29;4.43;;;3.90;;
46767;SDS011;69007;48.978;18.066;2023-04-25T13:00:54;6.60;;;4.35;;
46767;SDS011;69007;48.978;18.066;2023-04-25T13:03:20;5.05;;;4.20;;
46767;SDS011;69007;48.978;18.066;2023-04-25T13:05:46;7.70;;;3.65;;
46767;SDS011;69007;48.978;18.066;2023-04-25T13:08:11;3.95;;;3.65;;
46767;SDS011;69007;48.978;18.066;2023-04-25T13:10:37;4.22;;;3.78;;
46767;SDS011;69007;48.978;18.066;2023-04-25T13:13:04;3.08;;;2.60;;
46767;SDS011;69007;48.978;18.066;2023-04-25T13:15:30;2.83;;;2.10;;
46767;SDS011;69007;48.978;18.066;2023-04-25T13:17:55;6.03;;;2.72;;
46767;SDS011;69007;48.978;18.066;2023-04-25T13:20:21;3.05;;;2.03;;
46767;SDS011;69007;48.978;18.066;2023-04-25T13:22:47;5.00;;;2.05;;
46767;SDS011;69007;48.978;18.066;2023-04-25T13:25:13;3.72;;;1.48;;
46767;SDS011;69007;48.978;18.066;2023-04-25T13:27:38;6.63;;;2.65;;
46767;SDS011;69007;48.978;18.066;2023-04-25T13:30:05;3.72;;;2.10;;
46767;SDS011;69007;48.978;18.066;2023-04-25T13:32:36;2.92;;;1.92;;
46767;SDS011;69007;48.978;18.066;2023-04-25T13:35:05;2.25;;;2.08;;
46767;SDS011;69007;48.978;18.066;2023-04-25T13:37:33;4.07;;;2.15;;
46767;SDS011;69007;48.978;18.066;2023-04-25T13:40:02;3.13;;;2.15;;
46767;SDS011;69007;48.978;18.066;2023-04-25T13:42:30;3.70;;;2.35;;
46767;SDS011;69007;48.978;18.066;2023-04-25T13:44:56;3.35;;;2.10;;
46767;SDS011;69007;48.978;18.066;2023-04-25T13:47:22;2.33;;;1.90;;
46767;SDS011;69007;48.978;18.066;2023-04-25T13:49:48;4.20;;;1.80;;
46767;SDS011;69007;48.978;18.066;2023-04-25T13:52:13;2.28;;;1.75;;
46767;SDS011;69007;48.978;18.066;2023-04-25T13:54:38;1.73;;;1.63;;
46767;SDS011;69007;48.978;18.066;2023-04-25T13:57:04;2.22;;;2.03;;
46767;SDS011;69007;48.978;18.066;2023-04-25T13:59:30;2.38;;;2.17;;
46767;SDS011;69007;48.978;18.066;2023-04-25T14:01:55;2.33;;;2.15;;
46767;SDS011;69007;48.978;18.066;2023-04-25T14:04:20;3.97;;;3.10;;
46767;SDS011;69007;48.978;18.066;2023-04-25T14:06:46;4.68;;;3.45;;
46767;SDS011;69007;48.978;18.066;2023-04-25T14:09:11;2.22;;;1.90;;
46767;SDS011;69007;48.978;18.066;2023-04-25T14:11:37;2.08;;;1.98;;
46767;SDS011;69007;48.978;18.066;2023-04-25T14:14:03;4.53;;;2.28;;
46767;SDS011;69007;48.978;18.066;2023-04-25T14:16:29;2.10;;;1.95;;
46767;SDS011;69007;48.978;18.066;2023-04-25T14:18:55;3.55;;;2.38;;
46767;SDS011;69007;48.978;18.066;2023-04-25T14:21:21;2.60;;;2.35;;
46767;SDS011;69007;48.978;18.066;2023-04-25T14:23:46;2.58;;;2.17;;
46767;SDS011;69007;48.978;18.066;2023-04-25T14:26:12;2.45;;;2.25;;
46767;SDS011;69007;48.978;18.066;2023-04-25T14:28:38;2.47;;;2.28;;
46767;SDS011;69007;48.978;18.066;2023-04-25T14:31:03;2.92;;;2.30;;
46767;SDS011;69007;48.978;18.066;2023-04-25T14:33:29;2.40;;;2.20;;
46767;SDS011;69007;48.978;18.066;2023-04-25T14:35:55;4.20;;;2.22;;
46767;SDS011;69007;48.978;18.066;2023-04-25T14:38:21;3.50;;;2.78;;
46767;SDS011;69007;48.978;18.066;2023-04-25T14:40:48;4.93;;;2.20;;
46767;SDS011;69007;48.978;18.066;2023-04-25T14:43:14;4.80;;;2.20;;
46767;SDS011;69007;48.978;18.066;2023-04-25T14:45:40;3.67;;;2.50;;
46767;SDS011;69007;48.978;18.066;2023-04-25T14:48:05;2.55;;;2.28;;